CheckWX is a tool to help pilots better visualize weather data.  It is not intended as a substitute for an official pre-flight weather briefing.

19:14:03 UTC

CYMU METAR
Umiujaq Airport
Umiujaq, Canada
Current

1 hour ago

CYMU 261800Z 29015KT 15SM VCFG OVC004 01/01 A2947 RMK ST8 VIS E 1 SLP987
Observed
May-26 @ 18:00 UTC
Wind
  • 290° at 15 KTS
Visibility
15 SM
Flight Rules
LIFR
Conditions
Area Fog
Cloud Levels
  • Overcast at 400' AGL
Temperature
C / 34°F
Dewpoint
C / 34°F
Humidity
100%
Altimeter
29.47" Hg
Pressure
998.02 hPa
Previous

1 hour ago

CYMU 261749Z 29015G21KT 15SM VCFG OVC004 01/01 A2947 RMK ST8 VIS E 1 PRESRR SLP985
Observed
May-26 @ 17:49 UTC
Wind
  • 290° at 15 KTS
  • Gusting to 21 KTS
Visibility
15 SM
Flight Rules
LIFR
Conditions
Area Fog
Cloud Levels
  • Overcast at 400' AGL
Temperature
C / 34°F
Dewpoint
C / 34°F
Humidity
100%
Altimeter
29.47" Hg
Pressure
998.02 hPa
Previous

2 hours ago

CYMU 261735Z 30016G22KT 15SM -RA VCFG OVC004 02/02 A2945 RMK ST8 VIS E 1 SLP980
Observed
May-26 @ 17:35 UTC
Wind
  • 300° at 16 KTS
  • Gusting to 22 KTS
Visibility
15 SM
Flight Rules
LIFR
Conditions
Light Rain, Area Fog
Cloud Levels
  • Overcast at 400' AGL
Temperature
C / 36°F
Dewpoint
C / 36°F
Humidity
100%
Altimeter
29.45" Hg
Pressure
997.32 hPa